sensor_id;sensor_type;location;lat;lon;timestamp;pressure;altitude;pressure_sealevel;temperature;humidity
60099;BME280;45976;49.400;8.682;2022-08-03T00:00:24;100293.25;;;23.10;49.04
60099;BME280;45976;49.400;8.682;2022-08-03T00:01:25;100293.69;;;22.97;49.68
60099;BME280;45976;49.400;8.682;2022-08-03T00:02:26;100293.44;;;22.72;50.06
60099;BME280;45976;49.400;8.682;2022-08-03T00:03:27;100293.16;;;23.00;49.61
60099;BME280;45976;49.400;8.682;2022-08-03T00:04:27;100289.22;;;23.13;50.07
60099;BME280;45976;49.400;8.682;2022-08-03T00:05:28;100283.56;;;23.19;50.17
60099;BME280;45976;49.400;8.682;2022-08-03T00:06:28;100295.66;;;23.43;49.11
60099;BME280;45976;49.400;8.682;2022-08-03T00:07:29;100295.72;;;23.53;48.37
60099;BME280;45976;49.400;8.682;2022-08-03T00:08:30;100295.81;;;23.32;48.71
60099;BME280;45976;49.400;8.682;2022-08-03T00:09:30;100283.63;;;22.93;49.79
60099;BME280;45976;49.400;8.682;2022-08-03T00:10:31;100295.19;;;23.56;49.19
60099;BME280;45976;49.400;8.682;2022-08-03T00:11:32;100294.28;;;23.09;49.43
60099;BME280;45976;49.400;8.682;2022-08-03T00:12:33;100284.41;;;22.88;49.91
60099;BME280;45976;49.400;8.682;2022-08-03T00:13:35;100291.56;;;23.88;48.70
60099;BME280;45976;49.400;8.682;2022-08-03T00:14:36;100291.84;;;23.91;47.26
60099;BME280;45976;49.400;8.682;2022-08-03T00:15:36;100298.16;;;24.07;47.30
60099;BME280;45976;49.400;8.682;2022-08-03T00:16:37;100293.16;;;23.89;46.99
60099;BME280;45976;49.400;8.682;2022-08-03T00:17:38;100295.63;;;23.90;47.99
60099;BME280;45976;49.400;8.682;2022-08-03T00:18:39;100295.50;;;24.27;47.97
60099;BME280;45976;49.400;8.682;2022-08-03T00:19:40;100298.25;;;24.42;47.33
60099;BME280;45976;49.400;8.682;2022-08-03T00:20:40;100295.78;;;24.20;47.15
60099;BME280;45976;49.400;8.682;2022-08-03T00:21:41;100300.44;;;24.45;47.24
60099;BME280;45976;49.400;8.682;2022-08-03T00:22:42;100298.09;;;24.02;47.06
60099;BME280;45976;49.400;8.682;2022-08-03T00:23:42;100293.91;;;24.36;47.76
60099;BME280;45976;49.400;8.682;2022-08-03T00:24:43;100289.59;;;24.50;47.37
60099;BME280;45976;49.400;8.682;2022-08-03T00:25:43;100295.56;;;24.57;46.93
60099;BME280;45976;49.400;8.682;2022-08-03T00:26:44;100294.47;;;24.38;46.81
60099;BME280;45976;49.400;8.682;2022-08-03T00:27:45;100297.94;;;24.28;47.16
60099;BME280;45976;49.400;8.682;2022-08-03T00:28:46;100294.16;;;24.35;47.79
60099;BME280;45976;49.400;8.682;2022-08-03T00:29:46;100292.25;;;24.30;46.79
60099;BME280;45976;49.400;8.682;2022-08-03T00:30:47;100296.41;;;23.81;47.82
60099;BME280;45976;49.400;8.682;2022-08-03T00:31:48;100296.94;;;23.83;48.97
60099;BME280;45976;49.400;8.682;2022-08-03T00:32:48;100290.63;;;24.24;47.92
60099;BME280;45976;49.400;8.682;2022-08-03T00:33:49;100290.34;;;23.58;48.13
60099;BME280;45976;49.400;8.682;2022-08-03T00:34:50;100290.81;;;23.45;49.47
60099;BME280;45976;49.400;8.682;2022-08-03T00:35:50;100291.84;;;23.91;48.83
60099;BME280;45976;49.400;8.682;2022-08-03T00:36:51;100288.84;;;23.93;47.61
60099;BME280;45976;49.400;8.682;2022-08-03T00:37:52;100297.22;;;23.81;49.01
60099;BME280;45976;49.400;8.682;2022-08-03T00:38:53;100298.72;;;24.19;48.11
60099;BME280;45976;49.400;8.682;2022-08-03T00:39:54;100293.28;;;24.09;48.28
60099;BME280;45976;49.400;8.682;2022-08-03T00:40:55;100296.56;;;23.64;47.89
60099;BME280;45976;49.400;8.682;2022-08-03T00:41:56;100292.00;;;23.28;49.87
60099;BME280;45976;49.400;8.682;2022-08-03T00:42:58;100290.28;;;23.53;49.32
60099;BME280;45976;49.400;8.682;2022-08-03T00:44:01;100277.56;;;23.12;49.52
60099;BME280;45976;49.400;8.682;2022-08-03T00:45:01;100291.00;;;23.02;49.87
60099;BME280;45976;49.400;8.682;2022-08-03T00:46:02;100290.16;;;23.33;49.48
60099;BME280;45976;49.400;8.682;2022-08-03T00:47:02;100285.94;;;23.11;50.38
60099;BME280;45976;49.400;8.682;2022-08-03T00:48:05;100292.00;;;22.91;50.01
60099;BME280;45976;49.400;8.682;2022-08-03T00:49:08;100292.00;;;22.91;50.71
60099;BME280;45976;49.400;8.682;2022-08-03T00:50:09;100285.63;;;22.70;51.07
60099;BME280;45976;49.400;8.682;2022-08-03T00:51:10;100281.94;;;22.81;50.99
60099;BME280;45976;49.400;8.682;2022-08-03T00:52:12;100278.28;;;23.03;51.18
60099;BME280;45976;49.400;8.682;2022-08-03T00:53:15;100287.00;;;23.41;49.96
60099;BME280;45976;49.400;8.682;2022-08-03T00:54:16;100282.72;;;23.55;49.86
60099;BME280;45976;49.400;8.682;2022-08-03T00:55:18;100286.25;;;24.08;48.63
60099;BME280;45976;49.400;8.682;2022-08-03T00:56:19;100281.94;;;24.17;48.23
60099;BME280;45976;49.400;8.682;2022-08-03T00:57:20;100284.63;;;24.07;47.26
60099;BME280;45976;49.400;8.682;2022-08-03T00:58:20;100285.59;;;23.91;47.47
60099;BME280;45976;49.400;8.682;2022-08-03T00:59:21;100284.03;;;23.11;49.43
60099;BME280;45976;49.400;8.682;2022-08-03T01:00:25;100283.06;;;23.27;49.65
60099;BME280;45976;49.400;8.682;2022-08-03T01:01:26;100283.56;;;23.19;49.30
60099;BME280;45976;49.400;8.682;2022-08-03T01:02:28;100281.94;;;23.18;49.34
60099;BME280;45976;49.400;8.682;2022-08-03T01:03:28;100288.59;;;23.42;49.13
60099;BME280;45976;49.400;8.682;2022-08-03T01:04:29;100281.94;;;23.18;49.94
60099;BME280;45976;49.400;8.682;2022-08-03T01:05:32;100286.69;;;23.01;50.02
60099;BME280;45976;49.400;8.682;2022-08-03T01:06:53;100285.47;;;22.87;51.63
60099;BME280;45976;49.400;8.682;2022-08-03T01:08:13;100284.34;;;22.56;51.34
60099;BME280;45976;49.400;8.682;2022-08-03T01:09:22;100277.00;;;22.73;51.98
60099;BME280;45976;49.400;8.682;2022-08-03T01:10:44;100271.63;;;22.52;52.19
60099;BME280;45976;49.400;8.682;2022-08-03T01:12:12;100278.78;;;22.63;51.63
60099;BME280;45976;49.400;8.682;2022-08-03T01:16:09;100272.88;;;23.03;51.83
60099;BME280;45976;49.400;8.682;2022-08-03T01:17:48;100275.78;;;23.28;50.63
60099;BME280;45976;49.400;8.682;2022-08-03T01:20:34;100276.75;;;22.75;51.23
60099;BME280;45976;49.400;8.682;2022-08-03T01:21:57;100272.72;;;22.82;51.99
60099;BME280;45976;49.400;8.682;2022-08-03T01:28:25;100269.09;;;22.13;53.01
60099;BME280;45976;49.400;8.682;2022-08-03T01:30:42;100263.72;;;22.19;53.58
60099;BME280;45976;49.400;8.682;2022-08-03T01:31:56;100260.09;;;22.35;53.64
60099;BME280;45976;49.400;8.682;2022-08-03T01:33:24;100260.81;;;22.25;53.51
60099;BME280;45976;49.400;8.682;2022-08-03T01:34:31;100259.34;;;22.12;53.28
60099;BME280;45976;49.400;8.682;2022-08-03T01:35:50;100257.06;;;22.26;53.68
60099;BME280;45976;49.400;8.682;2022-08-03T01:36:58;100255.03;;;22.11;53.36
60099;BME280;45976;49.400;8.682;2022-08-03T01:38:10;100263.44;;;21.93;54.00
60099;BME280;45976;49.400;8.682;2022-08-03T01:39:14;100255.81;;;21.85;54.20
60099;BME280;45976;49.400;8.682;2022-08-03T01:40:18;100250.41;;;21.85;54.24
60099;BME280;45976;49.400;8.682;2022-08-03T01:41:24;100253.69;;;22.41;52.67
60099;BME280;45976;49.400;8.682;2022-08-03T01:42:31;100247.47;;;22.67;51.96
60099;BME280;45976;49.400;8.682;2022-08-03T01:43:35;100261.13;;;22.55;51.98
60099;BME280;45976;49.400;8.682;2022-08-03T01:44:43;100255.88;;;22.44;52.40
60099;BME280;45976;49.400;8.682;2022-08-03T01:45:46;100249.16;;;22.46;52.86
60099;BME280;45976;49.400;8.682;2022-08-03T01:46:48;100255.41;;;22.52;52.50
60099;BME280;45976;49.400;8.682;2022-08-03T01:47:50;100254.31;;;21.78;54.09
60099;BME280;45976;49.400;8.682;2022-08-03T01:48:54;100250.22;;;22.19;53.15
60099;BME280;45976;49.400;8.682;2022-08-03T01:49:56;100249.31;;;22.35;53.50
60099;BME280;45976;49.400;8.682;2022-08-03T01:51:00;100249.91;;;22.15;53.57
60099;BME280;45976;49.400;8.682;2022-08-03T01:52:02;100247.38;;;22.30;53.07
60099;BME280;45976;49.400;8.682;2022-08-03T01:53:05;100252.63;;;22.42;53.00
60099;BME280;45976;49.400;8.682;2022-08-03T01:54:10;100247.69;;;22.34;53.45
60099;BME280;45976;49.400;8.682;2022-08-03T01:55:16;100255.13;;;22.22;53.11
60099;BME280;45976;49.400;8.682;2022-08-03T01:56:21;100252.34;;;22.38;53.43
60099;BME280;45976;49.400;8.682;2022-08-03T01:57:26;100247.91;;;22.85;52.19
60099;BME280;45976;49.400;8.682;2022-08-03T01:58:30;100256.16;;;22.69;51.60
60099;BME280;45976;49.400;8.682;2022-08-03T01:59:33;100254.50;;;23.05;51.10
60099;BME280;45976;49.400;8.682;2022-08-03T02:00:37;100255.53;;;22.08;52.86
60099;BME280;45976;49.400;8.682;2022-08-03T02:01:40;100252.16;;;22.23;52.97
60099;BME280;45976;49.400;8.682;2022-08-03T02:02:46;100252.38;;;22.70;52.91
60099;BME280;45976;49.400;8.682;2022-08-03T02:03:51;100255.63;;;22.45;53.11
60099;BME280;45976;49.400;8.682;2022-08-03T02:04:55;100257.56;;;22.50;53.11
60099;BME280;45976;49.400;8.682;2022-08-03T02:06:00;100250.41;;;22.39;53.27
60099;BME280;45976;49.400;8.682;2022-08-03T02:07:01;100255.19;;;22.58;52.43
60099;BME280;45976;49.400;8.682;2022-08-03T02:08:04;100254.16;;;22.91;52.10
60099;BME280;45976;49.400;8.682;2022-08-03T02:09:08;100258.19;;;23.25;50.71
60099;BME280;45976;49.400;8.682;2022-08-03T02:10:12;100256.75;;;23.13;51.82
60099;BME280;45976;49.400;8.682;2022-08-03T02:11:15;100248.41;;;23.19;50.78
60099;BME280;45976;49.400;8.682;2022-08-03T02:12:16;100252.56;;;22.37;52.64
60099;BME280;45976;49.400;8.682;2022-08-03T02:13:18;100249.00;;;22.58;52.35
60099;BME280;45976;49.400;8.682;2022-08-03T02:14:21;100249.91;;;22.42;53.38
60099;BME280;45976;49.400;8.682;2022-08-03T02:15:23;100247.97;;;22.10;53.87
60099;BME280;45976;49.400;8.682;2022-08-03T02:16:26;100253.25;;;22.54;52.48
60099;BME280;45976;49.400;8.682;2022-08-03T02:17:31;100249.97;;;22.47;53.99
60099;BME280;45976;49.400;8.682;2022-08-03T02:18:34;100253.31;;;23.27;51.43
60099;BME280;45976;49.400;8.682;2022-08-03T02:19:39;100259.13;;;23.41;51.22
60099;BME280;45976;49.400;8.682;2022-08-03T02:20:42;100257.34;;;22.83;51.80
60099;BME280;45976;49.400;8.682;2022-08-03T02:21:45;100262.44;;;22.53;53.06
60099;BME280;45976;49.400;8.682;2022-08-03T02:22:46;100254.88;;;23.18;51.68
60099;BME280;45976;49.400;8.682;2022-08-03T02:23:47;100258.44;;;22.87;52.38
60099;BME280;45976;49.400;8.682;2022-08-03T02:24:48;100260.41;;;22.60;52.54
60099;BME280;45976;49.400;8.682;2022-08-03T02:25:57;100253.66;;;22.14;53.84
60099;BME280;45976;49.400;8.682;2022-08-03T02:27:03;100253.97;;;23.39;51.44
60099;BME280;45976;49.400;8.682;2022-08-03T02:28:15;100257.47;;;23.40;51.04
60099;BME280;45976;49.400;8.682;2022-08-03T02:29:21;100253.19;;;23.44;51.25
60099;BME280;45976;49.400;8.682;2022-08-03T02:30:33;100257.91;;;23.69;50.57
60099;BME280;45976;49.400;8.682;2022-08-03T02:31:38;100250.38;;;23.81;49.94
60099;BME280;45976;49.400;8.682;2022-08-03T02:32:43;100255.19;;;23.64;50.25
60099;BME280;45976;49.400;8.682;2022-08-03T02:33:57;100257.03;;;23.58;50.46
60099;BME280;45976;49.400;8.682;2022-08-03T02:35:01;100253.63;;;23.83;49.99
60099;BME280;45976;49.400;8.682;2022-08-03T02:36:05;100258.00;;;23.94;49.57
60099;BME280;45976;49.400;8.682;2022-08-03T02:37:09;100256.31;;;23.73;50.31
60099;BME280;45976;49.400;8.682;2022-08-03T02:38:12;100263.59;;;23.77;49.25
60099;BME280;45976;49.400;8.682;2022-08-03T02:39:19;100256.38;;;22.99;52.14
60099;BME280;45976;49.400;8.682;2022-08-03T02:40:23;100256.22;;;23.52;50.78
60099;BME280;45976;49.400;8.682;2022-08-03T02:41:30;100261.72;;;23.73;50.20
60099;BME280;45976;49.400;8.682;2022-08-03T02:42:38;100259.31;;;23.81;50.04
60099;BME280;45976;49.400;8.682;2022-08-03T02:43:44;100255.25;;;23.79;50.29
60099;BME280;45976;49.400;8.682;2022-08-03T02:44:53;100251.72;;;23.78;50.22
60099;BME280;45976;49.400;8.682;2022-08-03T02:45:56;100257.09;;;23.73;49.68
60099;BME280;45976;49.400;8.682;2022-08-03T02:47:03;100257.91;;;23.64;50.32
60099;BME280;45976;49.400;8.682;2022-08-03T02:48:08;100255.72;;;23.19;50.71
60099;BME280;45976;49.400;8.682;2022-08-03T02:49:12;100254.31;;;23.58;50.65
60099;BME280;45976;49.400;8.682;2022-08-03T02:50:16;100258.72;;;23.27;50.29
60099;BME280;45976;49.400;8.682;2022-08-03T02:51:19;100258.38;;;22.24;53.10
60099;BME280;45976;49.400;8.682;2022-08-03T02:52:24;100244.97;;;22.92;52.42
60099;BME280;45976;49.400;8.682;2022-08-03T02:53:27;100251.56;;;23.06;50.87
60099;BME280;45976;49.400;8.682;2022-08-03T02:54:31;100246.66;;;22.40;53.44
60099;BME280;45976;49.400;8.682;2022-08-03T02:55:35;100251.47;;;22.96;52.15
60099;BME280;45976;49.400;8.682;2022-08-03T02:56:36;100244.06;;;23.18;51.21
60099;BME280;45976;49.400;8.682;2022-08-03T02:57:38;100257.31;;;22.25;53.26
60099;BME280;45976;49.400;8.682;2022-08-03T02:58:42;100251.41;;;22.86;52.63
60099;BME280;45976;49.400;8.682;2022-08-03T02:59:44;100251.28;;;23.39;51.33
60099;BME280;45976;49.400;8.682;2022-08-03T03:00:47;100250.50;;;23.49;50.54
60099;BME280;45976;49.400;8.682;2022-08-03T03:01:51;100247.03;;;23.58;50.48
60099;BME280;45976;49.400;8.682;2022-08-03T03:02:58;100251.84;;;23.10;51.61
60099;BME280;45976;49.400;8.682;2022-08-03T03:04:04;100247.22;;;22.42;52.23
60099;BME280;45976;49.400;8.682;2022-08-03T03:05:07;100251.50;;;21.68;54.57
60099;BME280;45976;49.400;8.682;2022-08-03T03:06:10;100244.03;;;22.50;52.42
60099;BME280;45976;49.400;8.682;2022-08-03T03:07:13;100243.22;;;22.76;52.21
60099;BME280;45976;49.400;8.682;2022-08-03T03:08:18;100241.34;;;22.23;52.95
60099;BME280;45976;49.400;8.682;2022-08-03T03:09:21;100240.69;;;21.46;54.05
60099;BME280;45976;49.400;8.682;2022-08-03T03:10:23;100249.41;;;21.75;54.09
60099;BME280;45976;49.400;8.682;2022-08-03T03:11:25;100254.03;;;21.74;53.70
60099;BME280;45976;49.400;8.682;2022-08-03T03:12:28;100250.69;;;22.64;51.26
60099;BME280;45976;49.400;8.682;2022-08-03T03:13:31;100255.16;;;22.53;51.49
60099;BME280;45976;49.400;8.682;2022-08-03T03:14:33;100259.72;;;21.99;52.08
60099;BME280;45976;49.400;8.682;2022-08-03T03:15:37;100253.22;;;21.95;52.57
60099;BME280;45976;49.400;8.682;2022-08-03T03:16:40;100246.31;;;22.58;52.74
60099;BME280;45976;49.400;8.682;2022-08-03T03:17:43;100250.88;;;22.89;50.08
60099;BME280;45976;49.400;8.682;2022-08-03T03:18:46;100249.22;;;22.83;51.75
60099;BME280;45976;49.400;8.682;2022-08-03T03:19:50;100253.25;;;22.54;52.43
60099;BME280;45976;49.400;8.682;2022-08-03T03:20:52;100250.94;;;22.94;51.72
60099;BME280;45976;49.400;8.682;2022-08-03T03:21:54;100255.53;;;22.35;51.89
60099;BME280;45976;49.400;8.682;2022-08-03T03:22:55;100246.19;;;22.74;52.19
60099;BME280;45976;49.400;8.682;2022-08-03T03:23:59;100245.78;;;22.93;51.16
60099;BME280;45976;49.400;8.682;2022-08-03T03:25:01;100244.91;;;22.82;52.21
60099;BME280;45976;49.400;8.682;2022-08-03T03:26:03;100241.50;;;22.97;51.53
60099;BME280;45976;49.400;8.682;2022-08-03T03:27:05;100248.06;;;22.47;51.99
60099;BME280;45976;49.400;8.682;2022-08-03T03:28:08;100240.75;;;21.89;53.36
60099;BME280;45976;49.400;8.682;2022-08-03T03:29:09;100245.03;;;21.47;54.80
60099;BME280;45976;49.400;8.682;2022-08-03T03:30:11;100245.31;;;21.29;55.73
60099;BME280;45976;49.400;8.682;2022-08-03T03:31:12;100233.16;;;22.40;53.73
60099;BME280;45976;49.400;8.682;2022-08-03T03:32:14;100236.81;;;22.82;52.32
60099;BME280;45976;49.400;8.682;2022-08-03T03:33:14;100237.97;;;22.96;51.21
60099;BME280;45976;49.400;8.682;2022-08-03T03:34:17;100238.09;;;22.48;52.85
60099;BME280;45976;49.400;8.682;2022-08-03T03:35:18;100234.38;;;22.85;52.29
60099;BME280;45976;49.400;8.682;2022-08-03T03:36:19;100236.81;;;23.24;51.37
60099;BME280;45976;49.400;8.682;2022-08-03T03:37:20;100240.94;;;22.63;52.40
60099;BME280;45976;49.400;8.682;2022-08-03T03:38:21;100238.47;;;22.88;52.14
60099;BME280;45976;49.400;8.682;2022-08-03T03:39:21;100235.88;;;22.66;52.71
60099;BME280;45976;49.400;8.682;2022-08-03T03:40:22;100236.81;;;22.87;52.29
60099;BME280;45976;49.400;8.682;2022-08-03T03:41:24;100234.44;;;22.96;52.28
60099;BME280;45976;49.400;8.682;2022-08-03T03:42:25;100242.50;;;23.27;51.23
60099;BME280;45976;49.400;8.682;2022-08-03T03:43:26;100235.22;;;23.28;50.93
60099;BME280;45976;49.400;8.682;2022-08-03T03:44:28;100239.63;;;21.85;54.35
60099;BME280;45976;49.400;8.682;2022-08-03T03:45:30;100244.53;;;22.42;53.77
60099;BME280;45976;49.400;8.682;2022-08-03T03:46:30;100233.09;;;22.61;53.28
60099;BME280;45976;49.400;8.682;2022-08-03T03:47:33;100243.59;;;22.58;53.24
60099;BME280;45976;49.400;8.682;2022-08-03T03:48:34;100239.75;;;22.80;52.90
60099;BME280;45976;49.400;8.682;2022-08-03T03:49:35;100245.72;;;23.24;51.42
60099;BME280;45976;49.400;8.682;2022-08-03T03:50:36;100241.47;;;23.33;51.00
60099;BME280;45976;49.400;8.682;2022-08-03T03:51:40;100243.00;;;23.24;51.33
60099;BME280;45976;49.400;8.682;2022-08-03T03:52:40;100236.72;;;23.50;50.93
60099;BME280;45976;49.400;8.682;2022-08-03T03:53:59;100239.16;;;23.52;50.52
60099;BME280;45976;49.400;8.682;2022-08-03T03:55:02;100246.94;;;23.38;50.77
60099;BME280;45976;49.400;8.682;2022-08-03T03:56:03;100247.53;;;23.50;50.57
60099;BME280;45976;49.400;8.682;2022-08-03T03:57:03;100249.66;;;23.48;50.64
60099;BME280;45976;49.400;8.682;2022-08-03T03:58:04;100253.50;;;23.57;50.52
60099;BME280;45976;49.400;8.682;2022-08-03T03:59:06;100247.53;;;23.55;50.58
60099;BME280;45976;49.400;8.682;2022-08-03T04:00:07;100244.41;;;22.90;51.43
60099;BME280;45976;49.400;8.682;2022-08-03T04:01:08;100247.72;;;23.34;51.04
60099;BME280;45976;49.400;8.682;2022-08-03T04:02:10;100252.06;;;23.40;50.75
60099;BME280;45976;49.400;8.682;2022-08-03T04:03:11;100248.84;;;23.43;50.82
60099;BME280;45976;49.400;8.682;2022-08-03T04:04:11;100253.03;;;23.24;51.65
60099;BME280;45976;49.400;8.682;2022-08-03T04:05:30;100252.97;;;23.50;50.65
60099;BME280;45976;49.400;8.682;2022-08-03T04:06:49;100251.78;;;23.36;51.21
60099;BME280;45976;49.400;8.682;2022-08-03T04:08:15;100241.59;;;23.53;50.69
60099;BME280;45976;49.400;8.682;2022-08-03T04:09:37;100249.88;;;22.63;52.89
60099;BME280;45976;49.400;8.682;2022-08-03T04:11:06;100250.34;;;23.29;51.64
60099;BME280;45976;49.400;8.682;2022-08-03T04:12:21;100248.19;;;22.57;52.72
60099;BME280;45976;49.400;8.682;2022-08-03T04:13:30;100250.53;;;23.12;51.93
60099;BME280;45976;49.400;8.682;2022-08-03T04:14:55;100244.69;;;22.94;52.40
60099;BME280;45976;49.400;8.682;2022-08-03T04:15:58;100250.28;;;23.19;51.32
60099;BME280;45976;49.400;8.682;2022-08-03T04:17:02;100245.63;;;23.04;52.02
60099;BME280;45976;49.400;8.682;2022-08-03T04:18:09;100248.22;;;22.94;51.66
60099;BME280;45976;49.400;8.682;2022-08-03T04:19:16;100251.56;;;23.06;51.88
60099;BME280;45976;49.400;8.682;2022-08-03T04:20:22;100250.56;;;22.80;52.46
60099;BME280;45976;49.400;8.682;2022-08-03T04:21:29;100247.34;;;22.03;54.12
60099;BME280;45976;49.400;8.682;2022-08-03T04:22:33;100259.56;;;22.33;54.32
60099;BME280;45976;49.400;8.682;2022-08-03T04:23:38;100255.91;;;21.95;54.53
60099;BME280;45976;49.400;8.682;2022-08-03T04:24:48;100257.03;;;21.99;55.48
60099;BME280;45976;49.400;8.682;2022-08-03T04:25:54;100255.41;;;22.52;53.57
60099;BME280;45976;49.400;8.682;2022-08-03T04:26:57;100257.28;;;21.76;55.28
60099;BME280;45976;49.400;8.682;2022-08-03T04:28:01;100250.75;;;22.16;54.29
60099;BME280;45976;49.400;8.682;2022-08-03T04:29:03;100252.47;;;22.27;54.54
60099;BME280;45976;49.400;8.682;2022-08-03T04:30:06;100257.56;;;22.23;53.84
60099;BME280;45976;49.400;8.682;2022-08-03T04:31:08;100258.22;;;22.08;54.44
60099;BME280;45976;49.400;8.682;2022-08-03T04:32:10;100248.41;;;22.24;54.57
60099;BME280;45976;49.400;8.682;2022-08-03T04:33:11;100259.19;;;21.37;56.90
60099;BME280;45976;49.400;8.682;2022-08-03T04:34:12;100263.78;;;21.20;57.14
60099;BME280;45976;49.400;8.682;2022-08-03T04:35:13;100267.09;;;21.06;57.85
60099;BME280;45976;49.400;8.682;2022-08-03T04:36:16;100256.94;;;21.73;56.10
60099;BME280;45976;49.400;8.682;2022-08-03T04:37:39;100268.13;;;21.21;56.77
60099;BME280;45976;49.400;8.682;2022-08-03T04:40:07;100267.81;;;21.56;54.90
60099;BME280;45976;49.400;8.682;2022-08-03T04:41:13;100265.59;;;20.82;56.83
60099;BME280;45976;49.400;8.682;2022-08-03T04:42:13;100263.78;;;21.20;55.85
60099;BME280;45976;49.400;8.682;2022-08-03T04:43:17;100264.78;;;20.81;56.78
60099;BME280;45976;49.400;8.682;2022-08-03T04:44:22;100265.59;;;20.82;56.64
60099;BME280;45976;49.400;8.682;2022-08-03T04:45:26;100269.44;;;20.86;56.86
60099;BME280;45976;49.400;8.682;2022-08-03T04:46:31;100269.66;;;20.84;56.77
60099;BME280;45976;49.400;8.682;2022-08-03T04:47:37;100268.03;;;21.00;56.62
60099;BME280;45976;49.400;8.682;2022-08-03T04:48:38;100275.41;;;21.04;57.03
60099;BME280;45976;49.400;8.682;2022-08-03T04:49:39;100269.63;;;21.12;56.29
60099;BME280;45976;49.400;8.682;2022-08-03T04:50:41;100266.56;;;21.09;55.96
60099;BME280;45976;49.400;8.682;2022-08-03T04:51:42;100276.22;;;21.05;56.12
60099;BME280;45976;49.400;8.682;2022-08-03T04:52:44;100280.44;;;21.01;56.31
60099;BME280;45976;49.400;8.682;2022-08-03T04:53:44;100272.06;;;21.14;55.91
60099;BME280;45976;49.400;8.682;2022-08-03T04:54:45;100262.88;;;21.70;55.29
60099;BME280;45976;49.400;8.682;2022-08-03T04:55:47;100270.50;;;21.18;56.56
60099;BME280;45976;49.400;8.682;2022-08-03T04:56:47;100262.22;;;21.63;55.79
60099;BME280;45976;49.400;8.682;2022-08-03T04:57:48;100268.94;;;21.22;55.27
60099;BME280;45976;49.400;8.682;2022-08-03T04:58:51;100269.34;;;20.81;56.83
60099;BME280;45976;49.400;8.682;2022-08-03T04:59:53;100274.09;;;21.23;56.86
60099;BME280;45976;49.400;8.682;2022-08-03T05:00:55;100262.16;;;21.19;56.69
60099;BME280;45976;49.400;8.682;2022-08-03T05:01:56;100268.97;;;21.43;55.65
60099;BME280;45976;49.400;8.682;2022-08-03T05:02:56;100264.38;;;22.04;54.05
60099;BME280;45976;49.400;8.682;2022-08-03T05:03:57;100273.75;;;21.20;55.76
60099;BME280;45976;49.400;8.682;2022-08-03T05:04:59;100274.84;;;21.19;56.47
60099;BME280;45976;49.400;8.682;2022-08-03T05:06:00;100269.66;;;21.01;56.81
60099;BME280;45976;49.400;8.682;2022-08-03T05:07:00;100268.38;;;21.80;55.53
60099;BME280;45976;49.400;8.682;2022-08-03T05:08:01;100274.34;;;21.43;56.08
60099;BME280;45976;49.400;8.682;2022-08-03T05:09:02;100267.66;;;21.08;57.11
60099;BME280;45976;49.400;8.682;2022-08-03T05:10:04;100274.69;;;21.47;56.70
60099;BME280;45976;49.400;8.682;2022-08-03T05:11:07;100272.13;;;21.19;57.15
60099;BME280;45976;49.400;8.682;2022-08-03T05:12:08;100270.72;;;21.00;57.94
60099;BME280;45976;49.400;8.682;2022-08-03T05:13:08;100273.34;;;20.95;58.33
60099;BME280;45976;49.400;8.682;2022-08-03T05:14:12;100268.84;;;21.00;58.29
60099;BME280;45976;49.400;8.682;2022-08-03T05:15:13;100269.22;;;21.04;58.28
60099;BME280;45976;49.400;8.682;2022-08-03T05:16:14;100275.75;;;21.46;57.42
60099;BME280;45976;49.400;8.682;2022-08-03T05:17:14;100271.78;;;21.15;58.01
60099;BME280;45976;49.400;8.682;2022-08-03T05:18:15;100282.75;;;21.09;58.37
60099;BME280;45976;49.400;8.682;2022-08-03T05:19:16;100276.53;;;21.25;58.17
60099;BME280;45976;49.400;8.682;2022-08-03T05:20:16;100275.06;;;21.01;58.68
60099;BME280;45976;49.400;8.682;2022-08-03T05:21:17;100278.09;;;21.21;58.10
60099;BME280;45976;49.400;8.682;2022-08-03T05:22:17;100270.78;;;21.38;57.85
60099;BME280;45976;49.400;8.682;2022-08-03T05:23:18;100276.00;;;22.04;55.98
60099;BME280;45976;49.400;8.682;2022-08-03T05:24:19;100277.47;;;21.52;56.66
60099;BME280;45976;49.400;8.682;2022-08-03T05:25:19;100268.13;;;22.25;55.45
60099;BME280;45976;49.400;8.682;2022-08-03T05:26:20;100268.50;;;22.60;53.90
60099;BME280;45976;49.400;8.682;2022-08-03T05:27:20;100265.16;;;22.53;53.91
60099;BME280;45976;49.400;8.682;2022-08-03T05:28:21;100269.78;;;22.31;53.20
60099;BME280;45976;49.400;8.682;2022-08-03T05:29:22;100277.22;;;22.19;54.39
60099;BME280;45976;49.400;8.682;2022-08-03T05:30:22;100272.91;;;22.71;53.20
60099;BME280;45976;49.400;8.682;2022-08-03T05:31:23;100274.38;;;22.57;52.66
60099;BME280;45976;49.400;8.682;2022-08-03T05:32:24;100274.69;;;23.24;52.15
60099;BME280;45976;49.400;8.682;2022-08-03T05:33:24;100283.56;;;23.19;51.86
60099;BME280;45976;49.400;8.682;2022-08-03T05:34:25;100277.97;;;22.94;51.64
60099;BME280;45976;49.400;8.682;2022-08-03T05:35:25;100274.31;;;22.25;52.78
60099;BME280;45976;49.400;8.682;2022-08-03T05:36:27;100273.53;;;22.25;53.90
60099;BME280;45976;49.400;8.682;2022-08-03T05:37:28;100269.66;;;22.42;53.15
60099;BME280;45976;49.400;8.682;2022-08-03T05:38:29;100268.16;;;22.30;52.48
60099;BME280;45976;49.400;8.682;2022-08-03T05:39:31;100278.94;;;22.25;52.97
60099;BME280;45976;49.400;8.682;2022-08-03T05:40:31;100277.56;;;22.54;52.23
60099;BME280;45976;49.400;8.682;2022-08-03T05:41:32;100284.25;;;23.36;51.80
60099;BME280;45976;49.400;8.682;2022-08-03T05:42:32;100282.47;;;23.15;50.60
60099;BME280;45976;49.400;8.682;2022-08-03T05:43:36;100281.19;;;22.91;51.69
60099;BME280;45976;49.400;8.682;2022-08-03T05:44:37;100282.78;;;22.87;52.92
60099;BME280;45976;49.400;8.682;2022-08-03T05:45:37;100284.94;;;23.64;51.04